createdAt,value
2022-11-30T00:00:32.781Z,0.00
2022-11-30T00:01:32.776Z,0.00
2022-11-30T00:02:32.855Z,0.00
2022-11-30T00:03:32.794Z,0.00
2022-11-30T00:04:32.746Z,0.00
2022-11-30T00:05:32.743Z,0.00
2022-11-30T00:06:32.727Z,0.00
2022-11-30T00:07:32.768Z,0.00
2022-11-30T00:08:32.715Z,0.00
2022-11-30T00:09:32.698Z,0.00
2022-11-30T00:10:32.693Z,0.00
2022-11-30T00:11:32.682Z,0.00
2022-11-30T00:12:32.675Z,0.00
2022-11-30T00:13:32.665Z,0.00
2022-11-30T00:14:32.652Z,0.00
2022-11-30T00:15:32.652Z,0.00
2022-11-30T00:16:32.684Z,0.00
2022-11-30T00:17:32.632Z,0.00
2022-11-30T00:18:32.625Z,0.00
2022-11-30T00:19:32.616Z,0.00
2022-11-30T00:20:32.704Z,0.00
2022-11-30T00:21:32.594Z,0.00
2022-11-30T00:22:32.582Z,0.00
2022-11-30T00:23:32.573Z,0.00
2022-11-30T00:24:32.566Z,0.00
2022-11-30T00:25:32.556Z,0.00
2022-11-30T00:26:32.554Z,0.00
2022-11-30T00:27:32.533Z,0.00
2022-11-30T00:28:32.529Z,0.00
2022-11-30T00:29:32.521Z,0.00
2022-11-30T00:30:32.643Z,0.00
2022-11-30T00:31:32.507Z,0.00
2022-11-30T00:32:32.496Z,0.00
2022-11-30T00:33:32.487Z,0.00
2022-11-30T00:34:32.473Z,0.00
2022-11-30T00:35:32.471Z,0.00
2022-11-30T00:36:32.462Z,0.00
2022-11-30T00:37:32.449Z,0.00
2022-11-30T00:38:32.433Z,0.00
2022-11-30T00:39:35.483Z,0.00
2022-11-30T00:40:32.427Z,0.00
2022-11-30T00:41:32.409Z,0.00
2022-11-30T00:42:32.401Z,0.00
2022-11-30T00:43:32.394Z,0.00
2022-11-30T00:44:32.390Z,0.00
2022-11-30T00:45:32.478Z,0.00
2022-11-30T00:46:32.440Z,0.00
2022-11-30T00:47:32.359Z,0.00
2022-11-30T00:48:32.360Z,0.00
2022-11-30T00:49:32.338Z,0.00
2022-11-30T00:50:32.333Z,0.00
2022-11-30T00:51:32.320Z,0.00
2022-11-30T00:52:32.321Z,0.00
2022-11-30T00:53:32.307Z,0.00
2022-11-30T00:54:32.297Z,0.00
2022-11-30T00:55:32.384Z,0.00
2022-11-30T00:56:32.275Z,0.00
2022-11-30T00:57:32.266Z,0.00
2022-11-30T00:58:32.257Z,0.00
2022-11-30T00:59:32.247Z,0.00
2022-11-30T01:00:32.240Z,0.00
2022-11-30T01:01:32.283Z,0.00
2022-11-30T01:02:32.250Z,0.00
2022-11-30T01:03:32.222Z,0.00
2022-11-30T01:04:32.209Z,0.00
2022-11-30T01:05:32.190Z,0.00
2022-11-30T01:06:32.182Z,0.00
2022-11-30T01:07:32.218Z,0.00
2022-11-30T01:08:32.179Z,0.00
2022-11-30T01:09:32.162Z,0.00
2022-11-30T01:10:32.149Z,0.00
2022-11-30T01:11:33.650Z,0.00
2022-11-30T01:12:32.137Z,0.00
2022-11-30T01:13:32.128Z,0.00
2022-11-30T01:14:32.110Z,0.00
2022-11-30T01:15:32.177Z,0.00
2022-11-30T01:16:32.100Z,0.00
2022-11-30T01:17:32.087Z,0.00
2022-11-30T01:18:32.077Z,0.00
2022-11-30T01:19:32.068Z,0.00
2022-11-30T01:20:32.063Z,0.00
2022-11-30T01:21:32.050Z,0.00
2022-11-30T01:22:32.137Z,0.00
2022-11-30T01:23:32.032Z,0.00
2022-11-30T01:24:32.022Z,0.00
2022-11-30T01:25:32.010Z,0.00
2022-11-30T01:26:32.004Z,0.00
2022-11-30T01:27:32.002Z,0.00
2022-11-30T01:28:31.984Z,0.00
2022-11-30T01:29:31.989Z,0.00
2022-11-30T01:30:32.062Z,0.00
2022-11-30T01:31:31.959Z,0.00
2022-11-30T01:32:32.050Z,0.00
2022-11-30T01:33:31.942Z,0.00
2022-11-30T01:34:31.931Z,0.00
2022-11-30T01:35:31.926Z,0.00
2022-11-30T01:36:31.912Z,0.00
2022-11-30T01:37:32.008Z,0.00
2022-11-30T01:38:31.895Z,0.00
2022-11-30T01:39:31.883Z,0.00
2022-11-30T01:40:31.893Z,0.00
2022-11-30T01:41:31.867Z,0.00
2022-11-30T01:42:31.861Z,0.00
2022-11-30T01:43:31.853Z,0.00
2022-11-30T01:44:31.843Z,0.00
2022-11-30T01:45:31.838Z,0.00
2022-11-30T01:46:31.907Z,0.00
2022-11-30T01:47:31.811Z,0.00
2022-11-30T01:48:31.805Z,0.00
2022-11-30T01:49:31.804Z,0.00
2022-11-30T01:50:31.782Z,0.00
2022-11-30T01:51:31.781Z,0.00
2022-11-30T01:52:31.882Z,0.00
2022-11-30T01:53:31.764Z,0.00
2022-11-30T01:54:31.751Z,0.00
2022-11-30T01:55:31.743Z,0.00
2022-11-30T01:56:31.734Z,0.00
2022-11-30T01:57:31.730Z,0.00
2022-11-30T01:58:31.710Z,0.00
2022-11-30T01:59:31.702Z,0.00
2022-11-30T02:00:31.700Z,0.00
2022-11-30T02:01:31.715Z,0.00
2022-11-30T02:02:31.732Z,0.00
2022-11-30T02:03:31.776Z,0.00
2022-11-30T02:04:31.660Z,0.00
2022-11-30T02:05:31.651Z,0.00
2022-11-30T02:06:31.648Z,0.00
2022-11-30T02:07:31.769Z,0.00
2022-11-30T02:08:31.813Z,0.00
2022-11-30T02:09:31.617Z,0.00
2022-11-30T02:10:31.603Z,0.00
2022-11-30T02:11:31.598Z,0.00
2022-11-30T02:12:31.585Z,0.00
2022-11-30T02:13:31.577Z,0.00
2022-11-30T02:14:31.582Z,0.00
2022-11-30T02:15:31.608Z,0.00
2022-11-30T02:16:31.550Z,0.00
2022-11-30T02:17:31.544Z,0.00
2022-11-30T02:18:31.538Z,0.00
2022-11-30T02:19:31.527Z,0.00
2022-11-30T02:20:31.517Z,0.00
2022-11-30T02:21:31.506Z,0.00
2022-11-30T02:22:31.505Z,0.00
2022-11-30T02:23:32.676Z,0.00
2022-11-30T02:24:31.480Z,0.00
2022-11-30T02:25:31.467Z,0.00
2022-11-30T02:26:31.461Z,0.00
2022-11-30T02:27:31.458Z,0.00
2022-11-30T02:28:31.443Z,0.00
2022-11-30T02:29:31.429Z,0.00
2022-11-30T02:30:31.425Z,0.00
2022-11-30T02:31:31.409Z,0.00
2022-11-30T02:32:31.403Z,0.00
2022-11-30T02:33:31.396Z,0.00
2022-11-30T02:34:31.495Z,0.00
2022-11-30T02:35:31.375Z,0.00
2022-11-30T02:36:31.372Z,0.00
2022-11-30T02:37:31.362Z,0.00
2022-11-30T02:38:31.353Z,0.00
2022-11-30T02:39:31.349Z,0.00
2022-11-30T02:40:31.336Z,0.00
2022-11-30T02:41:34.962Z,0.00
2022-11-30T02:42:31.311Z,0.00
2022-11-30T02:43:31.309Z,0.00
2022-11-30T02:44:31.392Z,0.00
2022-11-30T02:45:31.360Z,0.00
2022-11-30T02:46:31.310Z,0.00
2022-11-30T02:47:31.267Z,0.00
2022-11-30T02:48:31.255Z,0.00
2022-11-30T02:49:31.249Z,0.00
2022-11-30T02:50:31.235Z,0.00
2022-11-30T02:51:31.232Z,0.00
2022-11-30T02:52:31.224Z,0.00
2022-11-30T02:53:31.215Z,0.00
2022-11-30T02:54:31.206Z,0.00
2022-11-30T02:55:31.300Z,0.00
2022-11-30T02:56:31.191Z,0.00
2022-11-30T02:57:31.173Z,0.00
2022-11-30T02:58:31.165Z,0.00
2022-11-30T02:59:31.158Z,0.00
2022-11-30T03:00:31.155Z,0.00
2022-11-30T03:01:31.159Z,0.00
2022-11-30T03:02:31.220Z,0.00
2022-11-30T03:03:31.118Z,0.00
2022-11-30T03:04:31.111Z,0.00
2022-11-30T03:05:31.105Z,0.00
2022-11-30T03:06:31.193Z,0.00
2022-11-30T03:07:31.102Z,0.00
2022-11-30T03:08:31.076Z,0.00
2022-11-30T03:09:31.075Z,0.00
2022-11-30T03:10:31.058Z,0.00
2022-11-30T03:11:31.043Z,0.00
2022-11-30T03:12:31.043Z,0.00
2022-11-30T03:13:31.028Z,0.00
2022-11-30T03:14:31.021Z,0.00
2022-11-30T03:15:31.013Z,0.00
2022-11-30T03:16:31.110Z,0.00
2022-11-30T03:17:30.992Z,0.00
2022-11-30T03:18:30.989Z,0.00
2022-11-30T03:19:30.971Z,0.00
2022-11-30T03:20:30.965Z,0.00
2022-11-30T03:21:30.965Z,0.00
2022-11-30T03:22:30.952Z,0.00
2022-11-30T03:23:30.938Z,0.00
2022-11-30T03:24:30.931Z,0.00
2022-11-30T03:25:30.920Z,0.00
2022-11-30T03:26:31.012Z,0.00
2022-11-30T03:27:30.898Z,0.00
2022-11-30T03:28:30.899Z,0.00
2022-11-30T03:29:30.890Z,0.00
2022-11-30T03:30:30.876Z,0.00
2022-11-30T03:31:30.892Z,0.00
2022-11-30T03:32:30.857Z,0.00
2022-11-30T03:33:30.850Z,0.00
2022-11-30T03:34:30.836Z,0.00
2022-11-30T03:35:30.829Z,0.00
2022-11-30T03:36:30.816Z,0.00
2022-11-30T03:37:30.817Z,0.00
2022-11-30T03:38:30.802Z,0.00
2022-11-30T03:39:30.795Z,0.00
2022-11-30T03:40:30.784Z,0.00
2022-11-30T03:41:30.785Z,0.00
2022-11-30T03:42:30.768Z,0.00
2022-11-30T03:43:30.751Z,0.00
2022-11-30T03:44:30.748Z,0.00
2022-11-30T03:45:30.739Z,0.00
2022-11-30T03:46:30.763Z,0.00
2022-11-30T03:47:30.716Z,0.00
2022-11-30T03:48:30.718Z,0.00
2022-11-30T03:49:30.702Z,0.00
2022-11-30T03:50:30.689Z,0.00
2022-11-30T03:51:30.686Z,0.00
2022-11-30T03:52:30.671Z,0.00
2022-11-30T03:53:30.667Z,0.00
2022-11-30T03:54:30.652Z,0.00
2022-11-30T03:55:30.648Z,0.00
2022-11-30T03:56:30.634Z,0.00
2022-11-30T03:57:30.634Z,0.00
2022-11-30T03:58:30.618Z,0.00
2022-11-30T03:59:30.616Z,0.00
2022-11-30T04:00:30.600Z,0.00
2022-11-30T04:01:30.630Z,0.00
2022-11-30T04:02:30.612Z,0.00
2022-11-30T04:03:30.576Z,0.00
2022-11-30T04:04:30.562Z,0.00
2022-11-30T04:05:30.550Z,0.00
2022-11-30T04:06:30.541Z,0.00
2022-11-30T04:07:30.634Z,0.00
2022-11-30T04:08:30.527Z,0.00
2022-11-30T04:09:30.527Z,0.00
2022-11-30T04:10:30.510Z,0.00
2022-11-30T04:11:30.496Z,0.00
2022-11-30T04:12:30.492Z,0.00
2022-11-30T04:13:30.482Z,0.00
2022-11-30T04:14:30.474Z,0.00
2022-11-30T04:15:30.468Z,0.00
2022-11-30T04:16:30.491Z,0.00
2022-11-30T04:17:30.443Z,0.00
2022-11-30T04:18:30.430Z,0.00
2022-11-30T04:19:30.423Z,0.00
2022-11-30T04:20:30.415Z,0.00
2022-11-30T04:21:30.402Z,0.00
2022-11-30T04:22:30.496Z,0.00
2022-11-30T04:23:30.384Z,0.00
2022-11-30T04:24:30.372Z,0.00
2022-11-30T04:25:30.363Z,0.00
2022-11-30T04:26:30.368Z,0.00
2022-11-30T04:27:30.349Z,0.00
2022-11-30T04:28:30.343Z,0.00
2022-11-30T04:29:30.333Z,0.00
2022-11-30T04:30:30.328Z,0.00
2022-11-30T04:31:30.346Z,0.00
2022-11-30T04:32:30.304Z,0.00
2022-11-30T04:33:30.291Z,0.00
2022-11-30T04:34:30.283Z,0.00
2022-11-30T04:35:30.277Z,0.00
2022-11-30T04:36:30.264Z,0.00
2022-11-30T04:37:30.267Z,0.00
2022-11-30T04:38:30.342Z,0.00
2022-11-30T04:39:30.241Z,0.00
2022-11-30T04:40:30.240Z,0.00
2022-11-30T04:41:30.224Z,0.00
2022-11-30T04:42:30.209Z,0.00
2022-11-30T04:43:30.200Z,0.00
2022-11-30T04:44:30.199Z,0.00
2022-11-30T04:45:35.079Z,0.00
2022-11-30T04:46:30.219Z,0.00
2022-11-30T04:47:30.168Z,0.00
2022-11-30T04:48:30.164Z,0.00
2022-11-30T04:49:30.156Z,0.00
2022-11-30T04:50:30.147Z,0.00
2022-11-30T04:51:30.130Z,0.00
2022-11-30T04:52:30.121Z,0.00
2022-11-30T04:53:30.108Z,0.00
2022-11-30T04:54:30.108Z,0.00
2022-11-30T04:55:30.087Z,0.00
2022-11-30T04:56:30.087Z,0.00
2022-11-30T04:57:30.076Z,0.00
2022-11-30T04:58:30.062Z,0.00
2022-11-30T04:59:30.153Z,0.00
2022-11-30T05:00:30.054Z,0.00
2022-11-30T05:01:30.049Z,0.00
2022-11-30T05:02:30.025Z,0.00
2022-11-30T05:03:30.018Z,0.00
2022-11-30T05:04:30.050Z,0.00
2022-11-30T05:05:29.997Z,0.00
2022-11-30T05:06:29.997Z,0.00
2022-11-30T05:07:30.062Z,0.00
2022-11-30T05:08:29.969Z,0.00
2022-11-30T05:09:29.964Z,0.00
2022-11-30T05:10:29.954Z,0.00
2022-11-30T05:11:29.950Z,0.00
2022-11-30T05:12:29.933Z,0.00
2022-11-30T05:13:29.925Z,0.00
2022-11-30T05:14:30.029Z,0.00
2022-11-30T05:15:29.912Z,0.00
2022-11-30T05:16:29.915Z,0.00
2022-11-30T05:17:29.908Z,0.00
2022-11-30T05:18:29.878Z,0.00
2022-11-30T05:19:29.868Z,0.00
2022-11-30T05:20:29.859Z,0.00
2022-11-30T05:21:29.847Z,0.00
2022-11-30T05:22:29.840Z,0.00
2022-11-30T05:23:29.838Z,0.00
2022-11-30T05:24:29.821Z,0.00
2022-11-30T05:25:29.812Z,0.00
2022-11-30T05:26:29.808Z,0.00
2022-11-30T05:27:29.801Z,0.00
2022-11-30T05:28:29.792Z,0.00
2022-11-30T05:29:29.872Z,0.00
2022-11-30T05:30:29.768Z,0.00
2022-11-30T05:31:29.810Z,0.00
2022-11-30T05:32:29.753Z,0.00
2022-11-30T05:33:29.739Z,0.00
2022-11-30T05:34:29.731Z,0.00
2022-11-30T05:35:29.720Z,0.00
2022-11-30T05:36:29.705Z,0.00
2022-11-30T05:37:29.702Z,0.00
2022-11-30T05:38:29.703Z,0.00
2022-11-30T05:39:29.692Z,0.00
2022-11-30T05:40:29.669Z,0.00
2022-11-30T05:41:29.663Z,0.00
2022-11-30T05:42:29.658Z,0.00
2022-11-30T05:43:29.644Z,0.00
2022-11-30T05:44:29.638Z,0.00
2022-11-30T05:45:29.728Z,0.00
2022-11-30T05:46:29.667Z,0.00
2022-11-30T05:47:29.612Z,0.00
2022-11-30T05:48:29.594Z,0.00
2022-11-30T05:49:29.587Z,0.00
2022-11-30T05:50:29.583Z,0.00
2022-11-30T05:51:29.571Z,0.00
2022-11-30T05:52:29.558Z,0.00
2022-11-30T05:53:29.552Z,0.00
2022-11-30T05:54:29.549Z,0.00
2022-11-30T05:55:29.542Z,0.00
2022-11-30T05:56:29.523Z,0.00
2022-11-30T05:57:29.516Z,0.00
2022-11-30T05:58:29.512Z,0.00
2022-11-30T05:59:29.507Z,0.00
2022-11-30T06:00:29.494Z,0.00
2022-11-30T06:01:29.589Z,0.00
2022-11-30T06:02:29.539Z,0.00
2022-11-30T06:03:29.522Z,0.00
2022-11-30T06:04:29.449Z,0.00
2022-11-30T06:05:29.445Z,0.00
2022-11-30T06:06:29.433Z,0.00
2022-11-30T06:07:29.502Z,0.00
2022-11-30T06:08:29.422Z,0.00
2022-11-30T06:09:29.410Z,0.00
2022-11-30T06:10:29.397Z,0.00
2022-11-30T06:11:29.489Z,0.00
2022-11-30T06:12:29.376Z,0.00
2022-11-30T06:13:29.377Z,0.00
2022-11-30T06:14:29.363Z,0.00
2022-11-30T06:15:29.352Z,0.00
2022-11-30T06:16:29.435Z,0.00
2022-11-30T06:17:29.430Z,0.00
2022-11-30T06:18:29.320Z,0.00
2022-11-30T06:19:29.311Z,0.00
2022-11-30T06:20:29.334Z,0.00
2022-11-30T06:21:29.308Z,0.00
2022-11-30T06:22:29.283Z,0.00
2022-11-30T06:23:29.377Z,0.00
2022-11-30T06:24:29.267Z,0.00
2022-11-30T06:25:29.259Z,0.00
2022-11-30T06:26:29.246Z,0.00
2022-11-30T06:27:29.234Z,0.00
2022-11-30T06:28:29.223Z,0.00
2022-11-30T06:29:29.323Z,0.00
2022-11-30T06:30:29.210Z,0.00
2022-11-30T06:31:29.235Z,0.00
2022-11-30T06:32:29.192Z,0.00
2022-11-30T06:33:29.432Z,0.00
2022-11-30T06:34:29.173Z,0.00
2022-11-30T06:35:29.266Z,0.00
2022-11-30T06:36:34.213Z,0.00
2022-11-30T06:37:29.154Z,0.00
2022-11-30T06:38:29.137Z,0.00
2022-11-30T06:39:57.696Z,0.00
2022-11-30T06:40:29.217Z,0.00
2022-11-30T06:41:29.114Z,0.00
2022-11-30T06:42:29.095Z,0.00
2022-11-30T06:43:29.089Z,0.00
2022-11-30T06:44:29.080Z,0.00
2022-11-30T06:45:29.145Z,0.00
2022-11-30T06:46:29.062Z,0.00
2022-11-30T06:47:29.054Z,0.00
2022-11-30T06:48:29.049Z,0.00
2022-11-30T06:49:29.041Z,0.00
2022-11-30T06:50:29.017Z,0.00
2022-11-30T06:51:29.009Z,0.00
2022-11-30T06:52:29.009Z,0.00
2022-11-30T06:53:28.996Z,0.00
2022-11-30T06:54:28.988Z,0.00
2022-11-30T06:55:29.102Z,0.00
2022-11-30T06:56:28.969Z,0.00
2022-11-30T06:57:28.976Z,0.00
2022-11-30T06:58:28.954Z,0.00
2022-11-30T06:59:28.942Z,0.00
2022-11-30T07:00:28.987Z,0.00
2022-11-30T07:01:29.003Z,0.00
2022-11-30T07:02:28.912Z,0.00
2022-11-30T07:03:28.903Z,0.00
2022-11-30T07:04:28.897Z,0.00
2022-11-30T07:05:28.888Z,0.00
2022-11-30T07:06:28.870Z,0.00
2022-11-30T07:07:28.902Z,0.00
2022-11-30T07:08:28.858Z,0.00
2022-11-30T07:09:28.849Z,0.00
2022-11-30T07:10:28.982Z,0.00
2022-11-30T07:11:28.825Z,0.00
2022-11-30T07:12:28.818Z,0.00
2022-11-30T07:13:28.807Z,0.00
2022-11-30T07:14:28.800Z,0.00
2022-11-30T07:15:28.785Z,0.00
2022-11-30T07:16:28.897Z,0.00
2022-11-30T07:17:28.768Z,0.00
2022-11-30T07:18:31.896Z,0.00
2022-11-30T07:19:28.755Z,0.00
2022-11-30T07:20:28.812Z,0.00
2022-11-30T07:21:28.730Z,0.00
2022-11-30T07:22:28.723Z,0.00
2022-11-30T07:23:28.713Z,0.00
2022-11-30T07:24:28.704Z,0.00
2022-11-30T07:25:28.694Z,0.00
2022-11-30T07:26:28.778Z,0.00
2022-11-30T07:27:28.676Z,0.00
2022-11-30T07:28:28.666Z,0.00
2022-11-30T07:29:28.659Z,0.00
2022-11-30T07:30:28.667Z,0.00
2022-11-30T07:31:28.787Z,0.00
2022-11-30T07:32:28.725Z,0.00
2022-11-30T07:33:28.618Z,0.00
2022-11-30T07:34:28.611Z,0.00
2022-11-30T07:35:28.608Z,0.00
2022-11-30T07:36:28.589Z,0.00
2022-11-30T07:37:28.582Z,0.00
2022-11-30T07:38:28.667Z,0.00
2022-11-30T07:39:28.566Z,0.00
2022-11-30T07:40:28.548Z,0.00
2022-11-30T07:41:28.543Z,0.00
2022-11-30T07:42:28.537Z,0.00
2022-11-30T07:43:28.521Z,0.00
2022-11-30T07:44:28.512Z,0.00
2022-11-30T07:45:28.578Z,0.00
2022-11-30T07:46:28.497Z,0.00
2022-11-30T07:47:28.488Z,0.00
2022-11-30T07:48:28.578Z,0.00
2022-11-30T07:49:28.488Z,0.00
2022-11-30T07:50:28.462Z,0.00
2022-11-30T07:51:28.443Z,0.00
2022-11-30T07:52:28.436Z,0.00
2022-11-30T07:53:28.529Z,0.00
2022-11-30T07:54:28.418Z,0.00
2022-11-30T07:55:28.417Z,0.00
2022-11-30T07:56:28.401Z,0.00
2022-11-30T07:57:28.390Z,0.00
2022-11-30T07:58:28.384Z,0.00
2022-11-30T07:59:28.471Z,0.00
2022-11-30T08:00:28.366Z,0.00
2022-11-30T08:01:28.460Z,0.00
2022-11-30T08:02:28.444Z,0.00
2022-11-30T08:03:31.208Z,0.00
2022-11-30T08:04:28.362Z,0.00
2022-11-30T08:05:28.418Z,0.00
2022-11-30T08:06:28.311Z,0.00
2022-11-30T08:07:28.423Z,0.00
2022-11-30T08:08:28.292Z,0.00
2022-11-30T08:09:28.279Z,0.00
2022-11-30T08:10:28.268Z,0.00
2022-11-30T08:11:28.365Z,0.00
2022-11-30T08:12:28.250Z,0.00
2022-11-30T08:13:28.243Z,0.00
2022-11-30T08:14:28.234Z,0.00
2022-11-30T08:15:32.559Z,0.00
2022-11-30T08:16:28.356Z,0.00
2022-11-30T08:17:28.208Z,0.00
2022-11-30T08:18:28.194Z,0.00
2022-11-30T08:19:28.190Z,0.00
2022-11-30T08:20:28.206Z,0.00
2022-11-30T08:21:28.274Z,0.00
2022-11-30T08:22:28.156Z,0.00
2022-11-30T08:23:28.148Z,0.00
2022-11-30T08:24:28.181Z,0.00
2022-11-30T08:25:28.154Z,0.00
2022-11-30T08:26:28.121Z,0.00
2022-11-30T08:27:28.112Z,0.00
2022-11-30T08:28:28.098Z,0.00
2022-11-30T08:29:28.097Z,0.00
2022-11-30T08:30:32.436Z,0.00
2022-11-30T08:31:28.129Z,0.00
2022-11-30T08:32:28.060Z,0.00
2022-11-30T08:33:30.801Z,0.00
2022-11-30T08:34:28.060Z,0.00
2022-11-30T08:35:28.036Z,0.00
2022-11-30T08:36:28.133Z,0.00
2022-11-30T08:37:28.030Z,0.00
2022-11-30T08:38:28.008Z,0.00
2022-11-30T08:39:28.157Z,0.00
2022-11-30T08:40:27.989Z,0.00
2022-11-30T08:41:27.984Z,0.00
2022-11-30T08:42:27.970Z,0.00
2022-11-30T08:43:27.970Z,0.00
2022-11-30T08:44:27.956Z,0.00
2022-11-30T08:45:27.948Z,0.00
2022-11-30T08:46:51.633Z,0.00
2022-11-30T08:47:27.944Z,0.00
2022-11-30T08:48:27.920Z,0.00
2022-11-30T08:49:27.914Z,0.00
2022-11-30T08:50:27.896Z,0.00
2022-11-30T08:51:27.892Z,0.00
2022-11-30T08:52:27.886Z,0.00
2022-11-30T08:53:27.868Z,0.00
2022-11-30T08:54:27.859Z,0.00
2022-11-30T08:55:27.855Z,0.00
2022-11-30T08:56:27.940Z,0.00
2022-11-30T08:57:27.895Z,0.00
2022-11-30T08:58:27.827Z,0.00
2022-11-30T08:59:27.815Z,0.00
2022-11-30T09:00:27.802Z,0.00
2022-11-30T09:01:29.900Z,0.00
2022-11-30T09:02:27.832Z,0.00
2022-11-30T09:03:27.778Z,0.00
2022-11-30T09:04:27.780Z,0.00
2022-11-30T09:05:27.761Z,0.00
2022-11-30T09:06:27.855Z,0.00
2022-11-30T09:07:27.777Z,0.00
2022-11-30T09:08:27.736Z,0.00
2022-11-30T09:09:27.725Z,0.00
2022-11-30T09:10:27.715Z,0.00
2022-11-30T09:11:27.714Z,0.00
2022-11-30T09:12:27.698Z,0.00
2022-11-30T09:13:27.695Z,0.00
2022-11-30T09:14:27.673Z,0.00
2022-11-30T09:15:27.667Z,0.00
2022-11-30T09:16:27.659Z,0.00
2022-11-30T09:17:27.754Z,0.00
2022-11-30T09:18:27.641Z,0.00
2022-11-30T09:19:27.640Z,0.00
2022-11-30T09:20:27.622Z,0.00
2022-11-30T09:21:27.625Z,0.00
2022-11-30T09:22:27.601Z,5.63
2022-11-30T09:23:27.593Z,5.63
2022-11-30T09:24:27.584Z,5.63
2022-11-30T09:25:27.579Z,5.63
2022-11-30T09:26:27.566Z,5.63
2022-11-30T09:27:27.555Z,5.63
2022-11-30T09:28:27.546Z,5.63
2022-11-30T09:29:27.537Z,5.63
2022-11-30T09:30:27.587Z,5.63
2022-11-30T09:31:27.521Z,5.63
2022-11-30T09:32:27.513Z,5.63
2022-11-30T09:33:27.510Z,5.63
2022-11-30T09:34:27.598Z,5.63
2022-11-30T09:35:27.677Z,5.63
2022-11-30T09:36:27.483Z,5.63
2022-11-30T09:37:27.463Z,5.63
2022-11-30T09:38:27.459Z,5.63
2022-11-30T09:39:27.456Z,5.63
2022-11-30T09:40:32.364Z,5.63
2022-11-30T09:41:27.432Z,5.63
2022-11-30T09:42:27.425Z,5.63
2022-11-30T09:43:27.416Z,5.63
2022-11-30T09:44:27.507Z,5.63
2022-11-30T09:45:27.401Z,5.63
2022-11-30T09:46:27.469Z,5.63
2022-11-30T09:47:27.800Z,5.63
2022-11-30T09:48:27.371Z,5.63
2022-11-30T09:49:27.366Z,5.63
2022-11-30T09:50:27.361Z,5.63
2022-11-30T09:51:27.357Z,5.63
2022-11-30T09:52:27.333Z,5.63
2022-11-30T09:53:29.795Z,11.25
2022-11-30T09:54:27.319Z,11.25
2022-11-30T09:55:27.414Z,11.25
2022-11-30T09:56:27.298Z,11.25
2022-11-30T09:57:27.290Z,11.25
2022-11-30T09:58:27.287Z,11.25
2022-11-30T09:59:27.272Z,11.25
2022-11-30T10:00:27.266Z,16.88
2022-11-30T10:01:30.589Z,16.88
2022-11-30T10:02:27.412Z,11.25
2022-11-30T10:03:27.370Z,11.25
2022-11-30T10:04:27.224Z,11.25
2022-11-30T10:05:27.317Z,11.25
2022-11-30T10:06:27.215Z,11.25
2022-11-30T10:07:27.249Z,11.25
2022-11-30T10:08:27.194Z,11.25
2022-11-30T10:09:27.180Z,11.25
2022-11-30T10:10:34.293Z,11.25
2022-11-30T10:11:27.171Z,11.25
2022-11-30T10:12:27.156Z,11.25
2022-11-30T10:13:27.147Z,11.25
2022-11-30T10:14:27.142Z,11.25
2022-11-30T10:15:27.229Z,11.25
2022-11-30T10:16:27.193Z,11.25
2022-11-30T10:17:27.115Z,11.25
2022-11-30T10:18:27.110Z,11.25
2022-11-30T10:19:27.093Z,11.25
2022-11-30T10:20:27.089Z,11.25
2022-11-30T10:21:27.076Z,11.25
2022-11-30T10:22:27.077Z,11.25
2022-11-30T10:23:27.058Z,11.25
2022-11-30T10:24:27.081Z,11.25
2022-11-30T10:25:27.144Z,11.25
2022-11-30T10:26:27.040Z,11.25
2022-11-30T10:27:27.020Z,11.25
2022-11-30T10:29:27.008Z,11.25
2022-11-30T10:30:26.997Z,11.25
2022-11-30T10:31:27.012Z,11.25
2022-11-30T10:32:26.985Z,11.25
2022-11-30T10:33:26.979Z,11.25
2022-11-30T10:34:26.961Z,11.25
2022-11-30T10:35:26.955Z,11.25
2022-11-30T10:36:26.949Z,16.88
2022-11-30T10:37:26.939Z,16.88
2022-11-30T10:38:26.926Z,16.88
2022-11-30T10:39:26.930Z,16.88
2022-11-30T10:40:26.919Z,16.88
2022-11-30T10:41:26.902Z,16.88
2022-11-30T10:42:26.890Z,22.50
2022-11-30T10:43:26.881Z,22.50
2022-11-30T10:44:26.881Z,22.50
2022-11-30T10:45:26.968Z,22.50
2022-11-30T10:46:26.894Z,22.50
2022-11-30T10:47:26.899Z,22.50
2022-11-30T10:48:26.847Z,22.50
2022-11-30T10:49:26.848Z,22.50
2022-11-30T10:50:26.827Z,22.50
2022-11-30T10:51:26.815Z,22.50
2022-11-30T10:52:26.810Z,22.50
2022-11-30T10:53:26.809Z,22.50
2022-11-30T10:54:26.794Z,22.50
2022-11-30T10:55:26.788Z,22.50
2022-11-30T10:56:26.788Z,22.50
2022-11-30T10:57:26.766Z,28.13
2022-11-30T10:58:26.765Z,28.13
2022-11-30T10:59:26.753Z,28.13
2022-11-30T11:00:26.748Z,28.13
2022-11-30T11:01:26.955Z,28.13
2022-11-30T11:02:26.811Z,28.13
2022-11-30T11:03:26.729Z,28.13
2022-11-30T11:04:26.749Z,28.13
2022-11-30T11:05:26.710Z,28.13
2022-11-30T11:06:26.696Z,28.13
2022-11-30T11:07:26.770Z,28.13
2022-11-30T11:08:26.738Z,33.75
2022-11-30T11:09:26.684Z,33.75
2022-11-30T11:10:26.665Z,33.75
2022-11-30T11:11:26.659Z,33.75
2022-11-30T11:12:26.658Z,33.75
2022-11-30T11:13:26.647Z,33.75
2022-11-30T11:14:26.630Z,33.75
2022-11-30T11:15:26.622Z,33.75
2022-11-30T11:16:26.683Z,33.75
2022-11-30T11:17:26.616Z,33.75
2022-11-30T11:18:26.605Z,39.38
2022-11-30T11:19:26.596Z,39.38
2022-11-30T11:20:26.586Z,39.38
2022-11-30T11:21:26.588Z,39.38
2022-11-30T11:22:26.574Z,39.38
2022-11-30T11:23:26.569Z,33.75
2022-11-30T11:24:26.556Z,33.75
2022-11-30T11:25:26.560Z,33.75
2022-11-30T11:26:26.642Z,33.75
2022-11-30T11:27:26.544Z,33.75
2022-11-30T11:28:26.535Z,33.75
2022-11-30T11:29:26.524Z,33.75
2022-11-30T11:30:26.516Z,33.75
2022-11-30T11:31:26.570Z,33.75
2022-11-30T11:32:26.504Z,33.75
2022-11-30T11:33:26.500Z,28.13
2022-11-30T11:34:26.496Z,28.13
2022-11-30T11:35:26.486Z,28.13
2022-11-30T11:36:26.480Z,28.13
2022-11-30T11:37:26.502Z,28.13
2022-11-30T11:38:26.464Z,28.13
2022-11-30T11:39:26.455Z,28.13
2022-11-30T11:40:26.451Z,28.13
2022-11-30T11:41:26.457Z,28.13
2022-11-30T11:42:26.448Z,28.13
2022-11-30T11:43:26.423Z,28.13
2022-11-30T11:44:26.419Z,28.13
2022-11-30T11:45:26.417Z,28.13
2022-11-30T11:46:26.434Z,28.13
2022-11-30T11:47:26.405Z,28.13
2022-11-30T11:48:29.138Z,33.75
2022-11-30T11:49:26.391Z,33.75
2022-11-30T11:50:50.371Z,33.75
2022-11-30T11:51:26.473Z,33.75
2022-11-30T11:52:26.619Z,28.13
2022-11-30T11:53:26.417Z,28.13
2022-11-30T11:54:26.363Z,28.13
2022-11-30T11:55:26.346Z,28.13
2022-11-30T11:56:26.347Z,28.13
2022-11-30T11:57:26.336Z,28.13
2022-11-30T11:58:26.331Z,28.13
2022-11-30T11:59:32.201Z,28.13
2022-11-30T12:00:26.313Z,28.13
2022-11-30T12:01:41.629Z,28.13
2022-11-30T12:02:26.336Z,28.13
2022-11-30T12:03:26.299Z,28.13
2022-11-30T12:04:26.333Z,33.75
2022-11-30T12:05:26.282Z,33.75
2022-11-30T12:06:26.276Z,33.75
2022-11-30T12:07:26.300Z,33.75
2022-11-30T12:08:26.258Z,33.75
2022-11-30T12:09:26.255Z,33.75
2022-11-30T12:10:51.293Z,33.75
2022-11-30T12:11:26.341Z,33.75
2022-11-30T12:12:26.245Z,33.75
2022-11-30T12:13:26.226Z,33.75
2022-11-30T12:14:26.228Z,33.75
2022-11-30T12:15:26.222Z,33.75
2022-11-30T12:16:26.354Z,33.75
2022-11-30T12:17:26.200Z,28.13
2022-11-30T12:18:26.198Z,28.13
2022-11-30T12:19:26.192Z,28.13
2022-11-30T12:20:26.176Z,28.13
2022-11-30T12:21:26.280Z,28.13
2022-11-30T12:22:26.172Z,28.13
2022-11-30T12:23:26.166Z,28.13
2022-11-30T12:24:26.170Z,28.13
2022-11-30T12:25:26.146Z,28.13
2022-11-30T12:26:26.249Z,28.13
2022-11-30T12:27:26.132Z,28.13
2022-11-30T12:28:26.128Z,28.13
2022-11-30T12:29:26.146Z,28.13
2022-11-30T12:30:26.117Z,28.13
2022-11-30T12:31:26.210Z,28.13
2022-11-30T12:32:26.108Z,28.13
2022-11-30T12:33:26.101Z,28.13
2022-11-30T12:34:26.096Z,28.13
2022-11-30T12:35:26.083Z,28.13
2022-11-30T12:36:26.087Z,28.13
2022-11-30T12:37:26.068Z,28.13
2022-11-30T12:38:26.063Z,28.13
2022-11-30T12:39:26.048Z,28.13
2022-11-30T12:40:26.050Z,28.13
2022-11-30T12:41:26.149Z,33.75
2022-11-30T12:42:26.040Z,33.75
2022-11-30T12:43:26.031Z,28.13
2022-11-30T12:44:26.021Z,28.13
2022-11-30T12:45:26.019Z,28.13
2022-11-30T12:46:26.042Z,28.13
2022-11-30T12:47:26.089Z,28.13
2022-11-30T12:48:26.005Z,28.13
2022-11-30T12:49:25.996Z,28.13
2022-11-30T12:50:25.993Z,28.13
2022-11-30T12:51:29.798Z,33.75
2022-11-30T12:52:25.980Z,33.75
2022-11-30T12:53:25.963Z,33.75
2022-11-30T12:54:25.966Z,33.75
2022-11-30T12:55:25.953Z,33.75
2022-11-30T12:56:26.050Z,33.75
2022-11-30T12:57:25.941Z,33.75
2022-11-30T12:58:25.931Z,33.75
2022-11-30T12:59:25.922Z,33.75
2022-11-30T13:00:25.922Z,33.75
2022-11-30T13:01:25.930Z,33.75
2022-11-30T13:02:25.929Z,33.75
2022-11-30T13:03:25.904Z,33.75
2022-11-30T13:04:25.899Z,33.75
2022-11-30T13:05:25.900Z,33.75
2022-11-30T13:06:25.885Z,33.75
2022-11-30T13:07:25.957Z,39.38
2022-11-30T13:08:25.868Z,39.38
2022-11-30T13:09:25.870Z,39.38
2022-11-30T13:10:25.865Z,39.38
2022-11-30T13:11:25.866Z,39.38
2022-11-30T13:12:25.843Z,39.38